Terminal Aerodrome Forecast
Issued by NWS

Home | Current Version | Previous Version | Text Only | Print | Product List | Glossary On
Versions: 1 2 3 4 5 6 7 8 9 10 11 12 13 14 15 16 17 18 19 20 21 22 23 24 25
000
FTUS45 KGGW 220500
TAFGDV
TAF
KGDV 220520Z 2206/2306 29020G30KT P6SM VCSH SCT010 BKN020
     FM221200 31020G28KT 5SM -SN BKN010 OVC035
     FM230000 33016KT P6SM OVC030
      AMD LTD TO CLD VIS AND WIND=

USA.gov is the U.S. government's official web portal to all federal, state and local government web resources and services.